Aérodrome :
LOGIN :

S'inscrire | Disclaimer

   EN    FR    IT 

 










Légende :    VFR   VFR Marginal   IFR   IFR Intensif   IFR Très Intensif
Visi : 
Plafond : 
>= 8 km
>= 3000ft
5 à 8 km
1000 à 3000 ft
1500m à 5 km
500 à 1000 ft
800 à 1500m
200 à 500 ft
< 800m
< 200 ft
Symboles :   Orages  Brouillard  Fortes neiges  Fortes précipitations  Vent > 20 kt
SIGMETs :   Divers  Orages  Givrage  Turbulence  Onde Orograph.  Cendres Volcan.






- Altitude de l'aérodrome : 1 ft


EGCK - Caernarfon

DERNIER METAR :
  • 021950Z AUTO 19003KT 9999 NCD 16/11 Q1016

METARs EXPIRÉS :
  • 021920Z AUTO 19004KT 9999 NCD 17/10 Q1016
  • 021850Z AUTO 22004KT 170V260 9999 NCD 18/11 Q1016
  • 021820Z AUTO 27006KT 9999 NCD 18/12 Q1016
  • 021750Z AUTO 25006KT 9999 NCD 18/13 Q1017
  • 021720Z AUTO 23005KT 9999 NCD 21/10 Q1017

TAF AMD TAF EGCK
Valide du 02 à 15h jusqu'au 03 à 00h UTC


021508Z 0215/0224 26009KT CAVOK
PROB30
TEMPO 0218/0224 7000 SHRA -RA BKN030



MET'MAP, la Météo Aéronautique d'un coup d'oeil ! - Copyright ORBIFLY Décembre 2007 - Disclaimer

ORBIFLY MET'MAP TEAM :

Programmation & Développement : Alexandra Zaïnal
Sur une idée originale de : Baudouin d'Aumeries
Assistance à la programmation : Marc-Olivier Méhu
Soutien technique & logistique : Manuel Goepfert

Contact : metmap@orbifly.com




SOURCES & CREDITS :

   NOAA